createdAt,value
2024-02-20T00:00:07.310Z,24.91
2024-02-20T00:01:07.458Z,24.91
2024-02-20T00:02:07.554Z,24.91
2024-02-20T00:03:07.406Z,24.91
2024-02-20T00:04:07.464Z,24.92
2024-02-20T00:05:07.491Z,24.94
2024-02-20T00:06:07.498Z,24.92
2024-02-20T00:07:07.566Z,24.91
2024-02-20T00:08:07.536Z,24.90
2024-02-20T00:09:07.550Z,24.90
2024-02-20T00:10:07.689Z,24.88
2024-02-20T00:11:07.645Z,24.91
2024-02-20T00:12:07.639Z,24.88
2024-02-20T00:13:07.718Z,24.94
2024-02-20T00:14:07.706Z,24.90
2024-02-20T00:15:07.718Z,24.90
2024-02-20T00:16:07.817Z,24.91
2024-02-20T00:17:07.780Z,24.90
2024-02-20T00:18:07.865Z,24.91
2024-02-20T00:19:07.944Z,24.90
2024-02-20T00:20:08.016Z,24.90
2024-02-20T00:21:07.904Z,24.88
2024-02-20T00:22:07.970Z,24.87
2024-02-20T00:23:07.938Z,24.88
2024-02-20T00:24:07.992Z,24.88
2024-02-20T00:25:08.031Z,24.90
2024-02-20T00:26:08.023Z,24.87
2024-02-20T00:27:08.053Z,24.88
2024-02-20T00:28:08.098Z,24.88
2024-02-20T00:29:08.134Z,24.88
2024-02-20T00:30:08.156Z,24.88
2024-02-20T00:31:08.218Z,24.85
2024-02-20T00:32:08.204Z,24.87
2024-02-20T00:33:08.282Z,24.85
2024-02-20T00:34:08.348Z,24.87
2024-02-20T00:35:08.386Z,24.85
2024-02-20T00:36:08.337Z,24.87
2024-02-20T00:37:08.360Z,24.88
2024-02-20T00:38:08.383Z,24.85
2024-02-20T00:39:08.517Z,24.83
2024-02-20T00:40:08.526Z,24.84
2024-02-20T00:41:08.479Z,24.85
2024-02-20T00:42:08.509Z,24.85
2024-02-20T00:43:08.551Z,24.84
2024-02-20T00:44:08.595Z,24.84
2024-02-20T00:45:08.605Z,24.85
2024-02-20T00:46:08.637Z,24.84
2024-02-20T00:47:08.660Z,24.84
2024-02-20T00:48:08.748Z,24.85
2024-02-20T00:49:08.922Z,24.81
2024-02-20T00:50:08.803Z,24.84
2024-02-20T00:51:08.797Z,24.85
2024-02-20T00:52:09.020Z,24.84
2024-02-20T00:53:08.847Z,24.84
2024-02-20T00:54:08.878Z,24.83
2024-02-20T00:55:09.020Z,24.84
2024-02-20T00:56:08.936Z,24.84
2024-02-20T00:57:08.963Z,24.85
2024-02-20T00:58:09.074Z,24.83
2024-02-20T00:59:09.035Z,24.84
2024-02-20T01:00:09.072Z,24.84
2024-02-20T01:01:09.240Z,24.84
2024-02-20T01:02:09.175Z,24.83
2024-02-20T01:03:09.213Z,24.83
2024-02-20T01:04:09.323Z,24.80
2024-02-20T01:05:09.242Z,24.81
2024-02-20T01:06:09.329Z,24.83
2024-02-20T01:07:09.486Z,24.84
2024-02-20T01:08:09.336Z,24.84
2024-02-20T01:09:09.379Z,24.84
2024-02-20T01:10:09.450Z,24.81
2024-02-20T01:11:09.440Z,24.81
2024-02-20T01:12:09.518Z,24.83
2024-02-20T01:13:09.525Z,24.81
2024-02-20T01:14:09.530Z,24.81
2024-02-20T01:15:09.555Z,24.81
2024-02-20T01:16:09.670Z,24.83
2024-02-20T01:17:09.642Z,24.80
2024-02-20T01:18:09.717Z,24.83
2024-02-20T01:19:09.901Z,24.81
2024-02-20T01:20:09.813Z,24.81
2024-02-20T01:21:09.801Z,24.80
2024-02-20T01:22:09.882Z,24.80
2024-02-20T01:23:10.077Z,24.78
2024-02-20T01:24:09.913Z,24.81
2024-02-20T01:25:09.957Z,24.80
2024-02-20T01:26:09.976Z,24.80
2024-02-20T01:27:10.018Z,24.83
2024-02-20T01:28:10.069Z,24.83
2024-02-20T01:29:10.123Z,24.80
2024-02-20T01:30:10.117Z,24.81
2024-02-20T01:31:10.174Z,24.81
2024-02-20T01:32:10.186Z,24.83
2024-02-20T01:33:10.269Z,24.80
2024-02-20T01:34:10.300Z,24.80
2024-02-20T01:35:10.463Z,24.81
2024-02-20T01:36:10.331Z,24.80
2024-02-20T01:37:10.381Z,24.81
2024-02-20T01:38:10.419Z,24.78
2024-02-20T01:39:10.452Z,24.78
2024-02-20T01:40:10.554Z,24.78
2024-02-20T01:41:10.521Z,24.78
2024-02-20T01:42:10.565Z,24.78
2024-02-20T01:43:10.736Z,24.81
2024-02-20T01:44:10.698Z,24.78
2024-02-20T01:45:10.690Z,24.80
2024-02-20T01:46:10.858Z,24.78
2024-02-20T01:47:10.754Z,24.78
2024-02-20T01:48:10.840Z,24.80
2024-02-20T01:49:11.072Z,24.77
2024-02-20T01:50:11.042Z,24.78
2024-02-20T01:51:10.922Z,24.78
2024-02-20T01:52:10.998Z,24.78
2024-02-20T01:53:10.993Z,24.77
2024-02-20T01:54:11.041Z,24.78
2024-02-20T01:55:11.104Z,24.77
2024-02-20T01:56:11.118Z,24.78
2024-02-20T01:57:11.166Z,24.78
2024-02-20T01:58:11.220Z,24.78
2024-02-20T01:59:11.228Z,24.78
2024-02-20T02:00:11.263Z,24.77
2024-02-20T02:01:11.470Z,24.77
2024-02-20T02:02:11.340Z,24.77
2024-02-20T02:03:11.377Z,24.80
2024-02-20T02:04:11.506Z,24.77
2024-02-20T02:05:11.727Z,24.77
2024-02-20T02:06:11.537Z,24.80
2024-02-20T02:07:11.657Z,24.80
2024-02-20T02:08:11.560Z,24.76
2024-02-20T02:09:11.602Z,24.77
2024-02-20T02:10:11.682Z,24.78
2024-02-20T02:11:11.730Z,24.77
2024-02-20T02:12:11.716Z,24.77
2024-02-20T02:13:11.761Z,24.78
2024-02-20T02:14:11.799Z,24.76
2024-02-20T02:15:11.846Z,24.77
2024-02-20T02:16:11.926Z,24.78
2024-02-20T02:17:11.915Z,24.80
2024-02-20T02:18:12.083Z,24.77
2024-02-20T02:19:12.091Z,24.76
2024-02-20T02:20:12.116Z,24.76
2024-02-20T02:21:12.085Z,24.76
2024-02-20T02:22:12.159Z,24.76
2024-02-20T02:23:12.158Z,24.76
2024-02-20T02:24:12.200Z,24.78
2024-02-20T02:25:12.292Z,24.77
2024-02-20T02:26:12.292Z,24.74
2024-02-20T02:27:12.330Z,24.74
2024-02-20T02:28:12.401Z,24.76
2024-02-20T02:29:12.421Z,24.77
2024-02-20T02:30:12.436Z,24.76
2024-02-20T02:31:12.591Z,24.74
2024-02-20T02:32:12.517Z,24.74
2024-02-20T02:33:12.654Z,24.76
2024-02-20T02:34:12.636Z,24.74
2024-02-20T02:35:12.809Z,24.73
2024-02-20T02:36:12.677Z,24.76
2024-02-20T02:37:12.780Z,24.76
2024-02-20T02:38:12.759Z,24.76
2024-02-20T02:39:12.805Z,24.74
2024-02-20T02:40:12.896Z,24.74
2024-02-20T02:41:12.893Z,24.76
2024-02-20T02:42:12.928Z,24.74
2024-02-20T02:43:12.991Z,24.73
2024-02-20T02:44:13.029Z,24.74
2024-02-20T02:45:13.052Z,24.74
2024-02-20T02:46:13.116Z,24.74
2024-02-20T02:47:13.151Z,24.74
2024-02-20T02:48:13.282Z,24.76
2024-02-20T02:49:13.431Z,24.74
2024-02-20T02:50:13.392Z,24.74
2024-02-20T02:51:13.290Z,24.74
2024-02-20T02:52:13.343Z,24.74
2024-02-20T02:53:13.366Z,24.73
2024-02-20T02:54:13.422Z,24.74
2024-02-20T02:55:13.511Z,24.74
2024-02-20T02:56:13.506Z,24.76
2024-02-20T02:57:13.569Z,24.73
2024-02-20T02:58:13.684Z,24.73
2024-02-20T02:59:13.637Z,24.77
2024-02-20T03:00:13.675Z,24.73
2024-02-20T03:01:13.763Z,24.71
2024-02-20T03:02:13.848Z,24.73
2024-02-20T03:03:13.849Z,24.73
2024-02-20T03:04:13.930Z,24.71
2024-02-20T03:05:13.897Z,24.74
2024-02-20T03:06:13.981Z,24.74
2024-02-20T03:07:14.060Z,24.74
2024-02-20T03:08:14.043Z,24.73
2024-02-20T03:09:14.608Z,24.73
2024-02-20T03:10:14.118Z,24.71
2024-02-20T03:11:14.182Z,24.73
2024-02-20T03:12:14.200Z,24.74
2024-02-20T03:13:14.264Z,24.73
2024-02-20T03:14:14.282Z,24.73
2024-02-20T03:15:14.329Z,24.73
2024-02-20T03:16:14.396Z,24.73
2024-02-20T03:17:14.407Z,24.73
2024-02-20T03:18:14.479Z,24.71
2024-02-20T03:19:14.576Z,24.73
2024-02-20T03:20:14.535Z,24.70
2024-02-20T03:21:14.588Z,24.74
2024-02-20T03:22:14.656Z,24.74
2024-02-20T03:23:14.737Z,24.74
2024-02-20T03:24:14.703Z,24.74
2024-02-20T03:25:14.765Z,24.73
2024-02-20T03:26:14.792Z,24.70
2024-02-20T03:27:14.827Z,24.74
2024-02-20T03:28:14.921Z,24.73
2024-02-20T03:29:14.905Z,24.73
2024-02-20T03:30:14.955Z,24.71
2024-02-20T03:31:15.034Z,24.74
2024-02-20T03:32:15.046Z,24.76
2024-02-20T03:33:15.176Z,24.74
2024-02-20T03:34:15.268Z,24.73
2024-02-20T03:35:15.205Z,24.76
2024-02-20T03:36:15.213Z,24.76
2024-02-20T03:37:15.275Z,24.74
2024-02-20T03:38:15.308Z,24.74
2024-02-20T03:39:15.312Z,24.73
2024-02-20T03:40:15.398Z,24.70
2024-02-20T03:41:15.412Z,24.74
2024-02-20T03:42:15.438Z,24.73
2024-02-20T03:43:15.562Z,24.73
2024-02-20T03:44:15.530Z,24.73
2024-02-20T03:45:15.568Z,24.74
2024-02-20T03:46:15.652Z,24.73
2024-02-20T03:47:15.644Z,24.73
2024-02-20T03:48:15.880Z,24.73
2024-02-20T03:49:16.056Z,24.73
2024-02-20T03:50:15.961Z,24.71
2024-02-20T03:51:15.827Z,24.73
2024-02-20T03:52:15.897Z,24.74
2024-02-20T03:53:15.913Z,24.74
2024-02-20T03:54:15.952Z,24.74
2024-02-20T03:55:16.010Z,24.76
2024-02-20T03:56:16.135Z,24.74
2024-02-20T03:57:16.545Z,24.74
2024-02-20T03:58:16.180Z,24.73
2024-02-20T03:59:16.201Z,24.74
2024-02-20T04:00:16.511Z,24.74
2024-02-20T04:01:16.332Z,24.74
2024-02-20T04:02:16.265Z,24.76
2024-02-20T04:03:16.476Z,24.76
2024-02-20T04:04:16.468Z,24.77
2024-02-20T04:05:19.006Z,24.78
2024-02-20T04:06:16.432Z,24.78
2024-02-20T04:07:16.409Z,24.83
2024-02-20T04:08:16.380Z,24.81
2024-02-20T04:09:16.382Z,24.81
2024-02-20T04:10:16.576Z,24.84
2024-02-20T04:11:16.381Z,24.85
2024-02-20T04:12:23.542Z,24.83
2024-02-20T04:13:23.550Z,24.85
2024-02-20T04:14:23.542Z,24.87
2024-02-20T04:15:23.554Z,24.85
2024-02-20T04:16:23.574Z,24.87
2024-02-20T04:17:23.547Z,24.90
2024-02-20T04:18:23.604Z,24.94
2024-02-20T04:19:23.676Z,24.94
2024-02-20T04:20:23.569Z,24.94
2024-02-20T04:21:23.555Z,24.95
2024-02-20T04:22:23.587Z,24.95
2024-02-20T04:23:23.546Z,24.99
2024-02-20T04:24:23.552Z,24.99
2024-02-20T04:25:23.610Z,24.98
2024-02-20T04:26:23.554Z,25.02
2024-02-20T04:27:23.545Z,25.01
2024-02-20T04:28:23.582Z,25.02
2024-02-20T04:29:23.668Z,25.05
2024-02-20T04:30:23.576Z,25.04
2024-02-20T04:31:30.783Z,25.02
2024-02-20T04:32:30.742Z,25.04
2024-02-20T04:33:30.786Z,25.05
2024-02-20T04:34:30.800Z,25.05
2024-02-20T04:35:30.721Z,25.09
2024-02-20T04:36:30.727Z,25.09
2024-02-20T04:37:30.832Z,25.12
2024-02-20T04:38:30.720Z,25.11
2024-02-20T04:39:30.719Z,25.11
2024-02-20T04:40:30.752Z,25.12
2024-02-20T04:41:30.716Z,25.15
2024-02-20T04:42:30.723Z,25.15
2024-02-20T04:43:30.800Z,25.18
2024-02-20T04:44:30.717Z,25.15
2024-02-20T04:45:30.723Z,25.18
2024-02-20T04:46:30.899Z,25.17
2024-02-20T04:47:30.755Z,25.18
2024-02-20T04:48:30.895Z,25.19
2024-02-20T04:49:30.841Z,25.17
2024-02-20T04:50:30.729Z,25.22
2024-02-20T04:51:30.724Z,25.22
2024-02-20T04:52:30.769Z,25.22
2024-02-20T04:53:30.730Z,25.22
2024-02-20T04:54:30.727Z,25.22
2024-02-20T04:55:30.812Z,25.23
2024-02-20T04:56:30.733Z,25.22
2024-02-20T04:57:30.735Z,25.22
2024-02-20T04:58:30.789Z,25.23
2024-02-20T04:59:30.734Z,25.23
2024-02-20T05:00:30.741Z,25.23
2024-02-20T05:01:30.930Z,25.26
2024-02-20T05:02:30.868Z,25.23
2024-02-20T05:03:30.975Z,25.26
2024-02-20T05:04:31.164Z,25.28
2024-02-20T05:05:31.133Z,25.28
2024-02-20T05:06:31.150Z,25.26
2024-02-20T05:07:31.220Z,25.25
2024-02-20T05:08:31.251Z,25.26
2024-02-20T05:09:31.320Z,25.29
2024-02-20T05:10:31.462Z,25.26
2024-02-20T05:11:31.472Z,25.26
2024-02-20T05:12:31.517Z,25.29
2024-02-20T05:13:31.627Z,25.28
2024-02-20T05:14:31.663Z,25.29
2024-02-20T05:15:31.716Z,25.28
2024-02-20T05:16:31.906Z,25.29
2024-02-20T05:17:32.913Z,25.29
2024-02-20T05:18:31.936Z,25.30
2024-02-20T05:19:32.008Z,25.30
2024-02-20T05:20:32.093Z,25.30
2024-02-20T05:21:32.178Z,25.30
2024-02-20T05:22:32.178Z,25.30
2024-02-20T05:23:32.236Z,25.32
2024-02-20T05:24:32.285Z,25.32
2024-02-20T05:25:32.399Z,25.30
2024-02-20T05:26:32.414Z,25.32
2024-02-20T05:27:32.457Z,25.30
2024-02-20T05:28:32.551Z,25.32
2024-02-20T05:29:32.586Z,25.30
2024-02-20T05:30:32.658Z,25.32
2024-02-20T05:31:32.894Z,25.30
2024-02-20T05:32:32.886Z,25.32
2024-02-20T05:33:32.881Z,25.30
2024-02-20T05:34:32.967Z,25.32
2024-02-20T05:35:35.196Z,25.29
2024-02-20T05:36:33.267Z,25.33
2024-02-20T05:37:33.027Z,25.30
2024-02-20T05:38:32.973Z,25.32
2024-02-20T05:39:32.977Z,25.33
2024-02-20T05:40:33.008Z,25.32
2024-02-20T05:41:33.044Z,25.30
2024-02-20T05:42:32.974Z,25.33
2024-02-20T05:43:33.118Z,25.32
2024-02-20T05:44:32.987Z,25.32
2024-02-20T05:45:32.992Z,25.32
2024-02-20T05:46:32.995Z,25.32
2024-02-20T05:47:33.045Z,25.30
2024-02-20T05:48:33.104Z,25.32
2024-02-20T05:49:33.102Z,25.33
2024-02-20T05:50:33.161Z,25.33
2024-02-20T05:51:33.014Z,25.32
2024-02-20T05:52:33.895Z,25.32
2024-02-20T05:53:32.978Z,25.35
2024-02-20T05:54:32.982Z,25.33
2024-02-20T05:55:33.056Z,25.33
2024-02-20T05:56:33.002Z,25.30
2024-02-20T05:57:32.985Z,25.32
2024-02-20T05:58:33.095Z,25.32
2024-02-20T05:59:32.997Z,25.32
2024-02-20T06:00:33.094Z,25.32
2024-02-20T06:01:33.127Z,25.32
2024-02-20T06:02:33.916Z,25.33
2024-02-20T06:03:33.017Z,25.30
2024-02-20T06:04:33.146Z,25.32
2024-02-20T06:05:33.361Z,25.32
2024-02-20T06:06:33.246Z,25.33
2024-02-20T06:07:33.259Z,25.33
2024-02-20T06:08:33.288Z,25.33
2024-02-20T06:09:33.364Z,25.33
2024-02-20T06:10:33.463Z,25.32
2024-02-20T06:11:33.567Z,25.32
2024-02-20T06:12:33.566Z,25.33
2024-02-20T06:13:33.689Z,25.33
2024-02-20T06:14:33.713Z,25.30
2024-02-20T06:15:33.764Z,25.30
2024-02-20T06:16:33.847Z,25.33
2024-02-20T06:17:33.944Z,25.30
2024-02-20T06:18:34.001Z,25.32
2024-02-20T06:19:34.080Z,25.33
2024-02-20T06:20:34.110Z,25.35
2024-02-20T06:21:34.168Z,25.35
2024-02-20T06:22:34.316Z,25.32
2024-02-20T06:23:35.248Z,25.36
2024-02-20T06:24:34.271Z,25.37
2024-02-20T06:25:34.336Z,25.36
2024-02-20T06:26:34.242Z,25.37
2024-02-20T06:27:34.273Z,25.36
2024-02-20T06:28:34.279Z,25.40
2024-02-20T06:29:34.284Z,25.42
2024-02-20T06:30:34.313Z,25.42
2024-02-20T06:31:34.430Z,25.44
2024-02-20T06:32:35.201Z,25.46
2024-02-20T06:33:34.514Z,25.49
2024-02-20T06:34:34.647Z,25.52
2024-02-20T06:35:34.537Z,25.54
2024-02-20T06:36:34.605Z,25.60
2024-02-20T06:37:34.627Z,25.61
2024-02-20T06:38:34.624Z,25.66
2024-02-20T06:39:34.646Z,25.71
2024-02-20T06:40:34.679Z,25.74
2024-02-20T06:41:34.709Z,25.77
2024-02-20T06:42:34.718Z,25.78
2024-02-20T06:43:34.877Z,25.84
2024-02-20T06:44:34.723Z,25.85
2024-02-20T06:45:35.295Z,25.87
2024-02-20T06:46:34.770Z,25.89
2024-02-20T06:47:34.858Z,25.95
2024-02-20T06:48:34.833Z,25.95
2024-02-20T06:49:34.891Z,26.01
2024-02-20T06:50:34.861Z,26.02
2024-02-20T06:51:34.851Z,26.06
2024-02-20T06:52:35.005Z,26.06
2024-02-20T06:53:34.946Z,26.13
2024-02-20T06:54:35.001Z,26.15
2024-02-20T06:55:35.086Z,26.16
2024-02-20T06:56:35.122Z,26.21
2024-02-20T06:57:35.258Z,26.23
2024-02-20T06:58:35.285Z,26.26
2024-02-20T06:59:35.306Z,26.29
2024-02-20T07:00:35.490Z,26.33
2024-02-20T07:01:35.506Z,26.32
2024-02-20T07:02:35.468Z,26.35
2024-02-20T07:03:35.544Z,26.36
2024-02-20T07:04:35.680Z,26.40
2024-02-20T07:05:36.749Z,26.43
2024-02-20T07:06:36.376Z,26.44
2024-02-20T07:07:35.729Z,26.47
2024-02-20T07:08:35.601Z,26.51
2024-02-20T07:09:35.595Z,26.53
2024-02-20T07:10:35.659Z,26.54
2024-02-20T07:11:35.658Z,26.57
2024-02-20T07:12:35.611Z,26.60
2024-02-20T07:13:35.625Z,26.60
2024-02-20T07:14:35.613Z,26.64
2024-02-20T07:15:35.606Z,26.65
2024-02-20T07:16:35.661Z,26.67
2024-02-20T07:17:35.716Z,26.71
2024-02-20T07:18:35.736Z,26.74
2024-02-20T07:19:35.819Z,26.75
2024-02-20T07:20:35.751Z,26.75
2024-02-20T07:21:35.763Z,26.80
2024-02-20T07:22:35.796Z,26.82
2024-02-20T07:23:35.803Z,26.85
2024-02-20T07:24:36.401Z,26.91
2024-02-20T07:25:35.926Z,26.97
2024-02-20T07:26:36.823Z,26.98
2024-02-20T07:27:35.907Z,27.05
2024-02-20T07:28:36.963Z,27.08
2024-02-20T07:29:35.917Z,27.10
2024-02-20T07:30:35.931Z,27.13
2024-02-20T07:31:36.633Z,27.12
2024-02-20T07:32:36.901Z,27.12
2024-02-20T07:33:37.710Z,27.15
2024-02-20T07:34:35.957Z,27.15
2024-02-20T07:35:37.064Z,27.19
2024-02-20T07:36:35.916Z,27.16
2024-02-20T07:37:37.449Z,27.19
2024-02-20T07:38:36.935Z,27.19
2024-02-20T07:39:36.948Z,27.21
2024-02-20T07:40:36.070Z,27.21
2024-02-20T07:41:37.003Z,27.21
2024-02-20T07:42:35.924Z,27.23
2024-02-20T07:43:38.181Z,27.25
2024-02-20T07:44:36.052Z,27.23
2024-02-20T07:45:36.085Z,27.23
2024-02-20T07:46:36.203Z,27.26
2024-02-20T07:47:36.633Z,27.26
2024-02-20T07:48:36.423Z,27.28
2024-02-20T07:49:36.504Z,27.28
2024-02-20T07:50:36.484Z,27.29
2024-02-20T07:51:36.491Z,27.29
2024-02-20T07:52:36.565Z,27.29
2024-02-20T07:53:36.601Z,27.30
2024-02-20T07:54:36.706Z,27.34
2024-02-20T07:55:36.771Z,27.34
2024-02-20T07:56:36.814Z,27.34
2024-02-20T07:57:36.882Z,27.32
2024-02-20T07:58:40.754Z,27.34
2024-02-20T07:59:38.908Z,27.34
2024-02-20T08:00:36.956Z,27.34
2024-02-20T08:01:37.079Z,27.34
2024-02-20T08:02:36.959Z,27.34
2024-02-20T08:03:36.972Z,27.33
2024-02-20T08:04:37.099Z,27.32
2024-02-20T08:05:37.095Z,27.32
2024-02-20T08:06:37.010Z,27.29
2024-02-20T08:07:39.002Z,27.30
2024-02-20T08:08:38.929Z,27.30
2024-02-20T08:09:37.139Z,27.32
2024-02-20T08:10:37.155Z,27.30
2024-02-20T08:11:37.162Z,27.26
2024-02-20T08:12:37.054Z,27.29
2024-02-20T08:13:37.156Z,27.29
2024-02-20T08:14:37.050Z,27.29
2024-02-20T08:15:37.834Z,27.26
2024-02-20T08:16:37.132Z,27.30
2024-02-20T08:17:37.951Z,27.30
2024-02-20T08:18:37.255Z,27.30
2024-02-20T08:19:37.475Z,27.30
2024-02-20T08:20:37.380Z,27.28
2024-02-20T08:21:37.431Z,27.30
2024-02-20T08:22:37.503Z,27.29
2024-02-20T08:23:37.565Z,27.26
2024-02-20T08:24:37.623Z,27.26
2024-02-20T08:25:37.687Z,27.25
2024-02-20T08:26:37.745Z,27.25
2024-02-20T08:27:37.832Z,27.23
2024-02-20T08:28:41.301Z,27.19
2024-02-20T08:29:38.027Z,27.16
2024-02-20T08:30:38.430Z,27.15
2024-02-20T08:31:37.895Z,27.10
2024-02-20T08:32:37.862Z,27.12
2024-02-20T08:33:37.925Z,27.10
2024-02-20T08:34:37.903Z,27.09
2024-02-20T08:35:37.933Z,27.05
2024-02-20T08:36:37.903Z,27.05
2024-02-20T08:37:37.921Z,27.03
2024-02-20T08:38:37.840Z,26.99
2024-02-20T08:39:37.840Z,27.01
2024-02-20T08:40:37.912Z,26.99
2024-02-20T08:41:37.942Z,26.99
2024-02-20T08:42:37.854Z,26.94
2024-02-20T08:43:37.876Z,26.92
2024-02-20T08:44:37.903Z,26.89
2024-02-20T08:45:37.845Z,26.91
2024-02-20T08:46:37.936Z,26.85
2024-02-20T08:47:37.927Z,26.87
2024-02-20T08:48:37.864Z,26.87
2024-02-20T08:49:37.916Z,26.87
2024-02-20T08:50:37.881Z,26.84
2024-02-20T08:51:37.947Z,26.85
2024-02-20T08:52:38.014Z,26.85
2024-02-20T08:53:38.036Z,26.82
2024-02-20T08:54:38.112Z,26.84
2024-02-20T08:55:38.260Z,26.84
2024-02-20T08:56:38.223Z,26.81
2024-02-20T08:57:38.281Z,26.81
2024-02-20T08:58:38.349Z,26.78
2024-02-20T08:59:38.399Z,26.82
2024-02-20T09:00:38.557Z,26.82
2024-02-20T09:01:38.626Z,26.81
2024-02-20T09:02:38.596Z,27.09
2024-02-20T09:03:38.675Z,27.72
2024-02-20T09:04:38.749Z,27.58
2024-02-20T09:05:38.898Z,28.65
2024-02-20T09:06:38.812Z,28.46
2024-02-20T09:07:38.877Z,28.94
2024-02-20T09:08:38.865Z,28.46
2024-02-20T09:09:38.922Z,28.23
2024-02-20T09:10:39.111Z,28.09
2024-02-20T09:11:39.080Z,28.27
2024-02-20T09:12:39.073Z,28.81
2024-02-20T09:13:39.166Z,29.10
2024-02-20T09:14:39.206Z,28.99
2024-02-20T09:15:39.260Z,27.91
2024-02-20T09:16:39.425Z,27.47
2024-02-20T09:17:39.334Z,25.30
2024-02-20T09:18:39.422Z,23.94
2024-02-20T09:19:39.620Z,23.42
2024-02-20T09:20:39.531Z,22.60
2024-02-20T09:21:39.490Z,20.51
2024-02-20T09:22:39.589Z,18.74
2024-02-20T09:23:40.519Z,18.34
2024-02-20T09:24:39.527Z,17.64
2024-02-20T09:25:39.586Z,18.24
2024-02-20T09:26:39.525Z,19.75
2024-02-20T09:27:39.547Z,22.94
2024-02-20T09:28:39.573Z,25.28
2024-02-20T09:29:40.451Z,26.51
2024-02-20T09:30:39.537Z,25.30
2024-02-20T09:31:39.603Z,24.87
2024-02-20T09:32:39.556Z,24.71
2024-02-20T09:33:39.643Z,24.67
2024-02-20T09:34:39.620Z,24.66
2024-02-20T09:35:39.568Z,24.68
2024-02-20T09:36:40.488Z,24.78
2024-02-20T09:37:39.634Z,24.88
2024-02-20T09:38:39.649Z,25.15
2024-02-20T09:39:39.658Z,25.80
2024-02-20T09:40:39.752Z,27.21
2024-02-20T09:41:39.749Z,28.13
2024-02-20T09:42:41.760Z,27.60
2024-02-20T09:43:39.819Z,27.30
2024-02-20T09:44:39.849Z,27.30
2024-02-20T09:45:39.811Z,29.64
2024-02-20T09:46:39.886Z,32.19
2024-02-20T09:47:39.832Z,33.10
2024-02-20T09:48:39.893Z,34.75
2024-02-20T09:49:39.940Z,36.00
2024-02-20T09:50:39.820Z,37.24
2024-02-20T09:51:40.884Z,38.17
2024-02-20T09:52:39.938Z,38.97
2024-02-20T09:53:39.869Z,39.40
2024-02-20T09:54:39.817Z,39.30
2024-02-20T09:55:39.857Z,40.04
2024-02-20T09:56:39.825Z,40.55
2024-02-20T09:57:39.829Z,40.90
2024-02-20T09:58:39.878Z,41.18
2024-02-20T09:59:39.828Z,41.45
2024-02-20T10:00:39.905Z,41.69
2024-02-20T10:01:40.583Z,41.92
2024-02-20T10:02:39.838Z,42.13
2024-02-20T10:03:40.385Z,42.33
2024-02-20T10:04:40.039Z,42.53
2024-02-20T10:05:40.084Z,42.73
2024-02-20T10:06:40.034Z,42.88
2024-02-20T10:07:40.029Z,43.05
2024-02-20T10:08:40.040Z,43.07
2024-02-20T10:09:40.025Z,42.28
2024-02-20T10:10:42.044Z,40.70
2024-02-20T10:11:40.237Z,39.32
2024-02-20T10:12:40.159Z,38.13
2024-02-20T10:13:40.200Z,37.13
2024-02-20T10:14:40.191Z,36.30
2024-02-20T10:15:40.226Z,35.58
2024-02-20T10:16:44.163Z,34.93
2024-02-20T10:17:40.287Z,34.38
2024-02-20T10:18:40.271Z,33.90
2024-02-20T10:19:40.351Z,33.45
2024-02-20T10:20:40.398Z,33.07
2024-02-20T10:21:40.266Z,32.62
2024-02-20T10:22:42.377Z,32.17
2024-02-20T10:23:40.295Z,31.73
2024-02-20T10:24:40.277Z,31.24
2024-02-20T10:25:40.356Z,30.72
2024-02-20T10:26:40.377Z,30.23
2024-02-20T10:27:40.292Z,29.75
2024-02-20T10:28:40.308Z,29.31
2024-02-20T10:29:40.303Z,28.95
2024-02-20T10:30:40.281Z,28.68
2024-02-20T10:31:40.327Z,28.44
2024-02-20T10:32:40.352Z,28.22
2024-02-20T10:33:40.436Z,28.03
2024-02-20T10:34:40.398Z,27.88
2024-02-20T10:35:40.452Z,27.68
2024-02-20T10:36:40.290Z,27.56
2024-02-20T10:37:40.938Z,27.49
2024-02-20T10:38:44.431Z,27.44
2024-02-20T10:39:41.401Z,27.41
2024-02-20T10:40:40.363Z,27.39
2024-02-20T10:41:40.387Z,27.41
2024-02-20T10:42:40.296Z,27.41
2024-02-20T10:43:40.374Z,27.44
2024-02-20T10:44:40.316Z,27.43
2024-02-20T10:45:40.301Z,27.46
2024-02-20T10:46:40.450Z,27.47
2024-02-20T10:47:40.348Z,27.54
2024-02-20T10:48:40.349Z,27.56
2024-02-20T10:49:40.392Z,27.61
2024-02-20T10:50:40.372Z,27.62
2024-02-20T10:51:40.323Z,27.67
2024-02-20T10:52:40.921Z,27.68
2024-02-20T10:53:40.408Z,27.71
2024-02-20T10:54:46.632Z,27.74
2024-02-20T10:55:41.508Z,27.80
2024-02-20T10:56:40.458Z,27.80
2024-02-20T10:57:40.516Z,27.81
2024-02-20T10:58:40.508Z,27.84
2024-02-20T10:59:40.467Z,27.85
2024-02-20T11:00:43.030Z,27.87
2024-02-20T11:01:41.035Z,27.89
2024-02-20T11:02:41.003Z,27.93
2024-02-20T11:03:49.230Z,27.95
2024-02-20T11:04:41.556Z,27.96
2024-02-20T11:05:40.639Z,28.01
2024-02-20T11:06:41.709Z,27.98
2024-02-20T11:07:40.554Z,28.01
2024-02-20T11:08:40.555Z,28.03
2024-02-20T11:09:40.488Z,28.10
2024-02-20T11:10:41.014Z,28.15
2024-02-20T11:11:40.525Z,28.23
2024-02-20T11:12:40.561Z,28.27
2024-02-20T11:13:40.532Z,28.32
2024-02-20T11:14:40.989Z,28.36
2024-02-20T11:15:40.481Z,28.39
2024-02-20T11:16:48.000Z,28.39
2024-02-20T11:17:41.602Z,28.43
2024-02-20T11:18:40.528Z,28.43
2024-02-20T11:19:40.707Z,28.42
2024-02-20T11:20:40.486Z,28.42
2024-02-20T11:21:40.519Z,28.40
2024-02-20T11:22:40.575Z,28.39
2024-02-20T11:23:40.502Z,28.37
2024-02-20T11:24:40.506Z,28.34
2024-02-20T11:25:40.669Z,28.32
2024-02-20T11:26:40.515Z,28.30
2024-02-20T11:27:40.504Z,28.27
2024-02-20T11:28:40.850Z,28.26
2024-02-20T11:29:40.538Z,28.26
2024-02-20T11:30:40.512Z,28.24
2024-02-20T11:31:40.599Z,28.19
2024-02-20T11:32:40.598Z,28.19
2024-02-20T11:33:40.712Z,28.16
2024-02-20T11:34:40.835Z,28.13
2024-02-20T11:35:43.235Z,28.13
2024-02-20T11:36:40.707Z,28.13
2024-02-20T11:37:49.097Z,28.12
2024-02-20T11:38:41.715Z,28.09
2024-02-20T11:39:40.720Z,28.09
2024-02-20T11:40:40.896Z,28.08
2024-02-20T11:41:42.775Z,28.06
2024-02-20T11:42:40.707Z,28.03
2024-02-20T11:43:40.724Z,28.05
2024-02-20T11:44:40.722Z,28.01
2024-02-20T11:45:40.714Z,27.99
2024-02-20T11:46:40.768Z,27.99
2024-02-20T11:47:40.780Z,27.93
2024-02-20T11:48:40.857Z,27.92
2024-02-20T11:49:40.753Z,27.93
2024-02-20T11:50:40.758Z,27.92
2024-02-20T11:51:40.734Z,27.91
2024-02-20T11:52:40.813Z,27.88
2024-02-20T11:53:40.758Z,27.87
2024-02-20T11:54:40.733Z,27.88
2024-02-20T11:55:40.924Z,27.83
2024-02-20T11:56:40.743Z,27.83
2024-02-20T11:57:40.744Z,27.81
2024-02-20T11:58:40.797Z,27.80
2024-02-20T11:59:40.747Z,27.78
2024-02-20T12:00:40.841Z,27.80
2024-02-20T12:01:40.951Z,27.75
2024-02-20T12:02:40.774Z,27.71
2024-02-20T12:03:40.758Z,27.69
2024-02-20T12:04:40.853Z,27.67
2024-02-20T12:05:40.889Z,27.62
2024-02-20T12:06:40.785Z,27.61
2024-02-20T12:07:40.877Z,27.58
2024-02-20T12:08:40.772Z,27.51
2024-02-20T12:09:40.769Z,27.51
2024-02-20T12:10:40.829Z,27.51
2024-02-20T12:11:40.801Z,27.47
2024-02-20T12:12:40.770Z,27.46
2024-02-20T12:13:40.970Z,27.43
2024-02-20T12:14:40.775Z,27.41
2024-02-20T12:15:40.768Z,27.39
2024-02-20T12:16:40.820Z,27.37
2024-02-20T12:17:40.816Z,27.37
2024-02-20T12:18:40.876Z,27.32
2024-02-20T12:19:40.859Z,27.33
2024-02-20T12:20:40.792Z,27.32
2024-02-20T12:21:40.790Z,27.33
2024-02-20T12:22:40.892Z,27.29
2024-02-20T12:23:40.792Z,27.30
2024-02-20T12:24:40.787Z,27.28
2024-02-20T12:25:40.831Z,27.23
2024-02-20T12:26:40.806Z,27.28
2024-02-20T12:27:40.799Z,27.28
2024-02-20T12:28:40.919Z,27.23
2024-02-20T12:29:40.779Z,27.26
2024-02-20T12:30:40.789Z,27.21
2024-02-20T12:31:40.845Z,27.23
2024-02-20T12:32:40.855Z,27.21
2024-02-20T12:33:40.889Z,27.21
2024-02-20T12:34:45.658Z,27.19
2024-02-20T12:35:41.887Z,27.19
2024-02-20T12:36:40.794Z,27.19
2024-02-20T12:37:40.847Z,27.16
2024-02-20T12:38:40.801Z,27.16
2024-02-20T12:39:40.794Z,27.16
2024-02-20T12:40:40.832Z,27.12
2024-02-20T12:41:40.805Z,27.12
2024-02-20T12:42:40.806Z,27.13
2024-02-20T12:43:40.852Z,27.09
2024-02-20T12:44:40.805Z,27.09
2024-02-20T12:45:40.819Z,27.10
2024-02-20T12:46:40.856Z,27.09
2024-02-20T12:47:40.856Z,27.06
2024-02-20T12:48:40.855Z,27.05
2024-02-20T12:49:40.921Z,27.03
2024-02-20T12:50:40.810Z,27.03
2024-02-20T12:51:40.802Z,27.02
2024-02-20T12:52:40.885Z,27.01